METAR AND TAF INFORMATION
METAR FOR EFLP
ADDS - METARS form results

(0232 UTC 01 June 2020)
Data provider http://aviationweather.gov/metar/data/
 
METAR text: EFLP 010220Z AUTO 08004KT 030V130 CAVOK 09/M00 Q1025
Conditions at: EFLP (LAPPEENRANTA , FI) observed 0220 UTC 01 June 2020
Temperature: 9.0°C (48°F)
Dewpoint: 0.0°C (32°F) [RH = 53%]
Pressure (altimeter): 30.27 inches Hg (1025.0 mb)
Winds: from the E (80 degrees) at 5 MPH (4 knots; 2.1 m/s)
Visibility: 6 or more miles (10+ km)
Ceiling: ceiling and visibility are OK
Clouds: unknown
Weather: no significant weather observed at this time

METAR text: EFLP 010150Z AUTO 10005KT 070V130 9999 -SHRA NSC 09/M00 Q1025
Conditions at: EFLP (LAPPEENRANTA , FI) observed 0150 UTC 01 June 2020
Temperature: 9.0°C (48°F)
Dewpoint: 0.0°C (32°F) [RH = 53%]
Pressure (altimeter): 30.27 inches Hg (1025.0 mb)
Winds: from the E (100 degrees) at 6 MPH (5 knots; 2.6 m/s)
Visibility: 6 or more miles (10+ km)
Ceiling: at least 12,000 feet AGL
Clouds: sky clear below 12,000 feet AGL
Weather: -SHRA  (light rain showers)

 AIRPORT MAP

 RUNWAY INFORMATION
Runway 06 Runway length 8202 ft Runway width 197 ft
Runway elevation 348 ft Runway displaced threshold 0 ft Runway heading 67
Runway 24 Runway length 8202 ft Runway width 197 ft
Runway elevation 349 ft Runway displaced threshold 0 ft Runway heading 247

 AIRPORT FREQUENCIES
Type ATIS Name ATIS Frequency 112.5 MHZ
Type TWR Name TWR Frequency 119.7 MHZ

 AIRPORT NEAR NAVIGATION AIDS
Type NDB Name Ranta Frequency 392 KHZ
Type VOR-DME Name Vilmas Frequency 112500 KHZ



Powered by Virtual Airlines Manager [v2.6.2]